Accueil
METAR-TAF:

METAR-TAF

Aéroports :

Fort-de-France, Martinique

Aéroport international Martinique Aimé Césaire

latitude: 14-36N, longitude: 061-00W, altitude: 5 m

Observation

Le bulletin a été fait il y a 28 minutes, à 01:30 UTC
Vent 7 kt de est
Température 26°C
Humidité 79%
Pression 1014 hPa
Visibilité 10 km ou plus
pas de nuages en-dessous de 1500 mètres et pas de cumulonimbus.

METAR: TFFF 250130Z AUTO 10007KT CAVOK 26/22 Q1014 NOSIG

Heure: 21:58 (01:58 UTC)

Prévision

Le bulletin a été fait il y a 2 heures et 58 minutes, à 23:00 UTC
Prévision valable du 25 à 00 UTC au 25 à 24 UTC
Vent 10 kt de est
Visibilité 10 km ou plus
Nuages épars à une hauteur de 2500 ft

TAF: TFFF 242300Z 2500/2524 10010KT 9999 SCT025

Observations et prévisions météorologiques de plus de 4000 aéroports (messages METAR et TAF).

Les stations disponibles sont représentées par des disques jaunes et rouges sur la carte.

Passer la souris dessus pour voir le nom de la station.

Cliquer dessus pour voir les observations et prévisions météorologiques.

Pour changer de carte: cliquez sur les boutons verts avec une croix noire pour zoomer, sur le bouton vert avec un tiret pour effectuer un zoom arrière, ou sur les flèches vertes pour les cartes adjacentes.


METAR-TAF: